Huron — WDI5216 — position and weather

sailwx.info

Track history (hours):
 
Tides and Currents Weather Stations Pressure Air Temp Water Temp Dewpoint Dewpoint Depression Visibility Wind Speed Wind Dir Waves Ship Positions

Huron

Owner: MIFC SHIPPING LLC, Mackinac Island, MI. More information available from US FCC via Universal Licensing System and Coast Guard Vessel Documentation Center.

Last reported at 2017-Oct-03 19:37 UTC. Time now 2017-Oct-20 18:28 UTC.
Position N 45°52' W 084°43'.
Warning: this ship's position is 16 days out of date.

Length 29 m; draft 2.4 m.

Type: Passenger vessel. MMSI: 367706310.

Date/timePositionNaut miles runAvg speedWind from/ knotsBaromVisibWave heightAir tempDewpointWater temp
2017-Oct-03 19:37N 45°52' W 084°43'0 0.4
2017-Oct-03 19:30N 45°52' W 084°43'0 0.2
2017-Oct-03 17:35N 45°52' W 084°43'0 6.3
2017-Oct-03 17:31N 45°52' W 084°43'4 8.4
2017-Oct-03 17:00N 45°51' W 084°37'2 4.5
2017-Oct-03 16:30N 45°51' W 084°40'2 4.9
2017-Oct-03 16:00N 45°52' W 084°43'0 0.0
2017-Oct-03 15:30N 45°52' W 084°43'3 5.7
2017-Oct-03 15:00N 45°51' W 084°39'3 2.8
2017-Oct-03 14:00N 45°52' W 084°43'0 0.1
2017-Oct-03 13:30N 45°52' W 084°43'1 1.5
2017-Oct-03 12:54N 45°52' W 084°42'4 9.6
2017-Oct-03 12:30N 45°51' W 084°37'0 0.2
2017-Oct-03 12:00N 45°51' W 084°37'3 0.2
2017-Oct-02 18:11N 45°52' W 084°42'210.7
2017-Oct-02 18:00N 45°51' W 084°39'1 0.7
2017-Oct-02 16:13N 45°52' W 084°41'2 0.6
2017-Oct-02 13:00N 45°52' W 084°43'0 0.2
2017-Oct-02 12:30N 45°52' W 084°43'0 0.0
2017-Oct-02 11:45N 45°52' W 084°43'0 0.0
2017-Oct-02 11:30N 45°52' W 084°43'0 0.0
2017-Oct-02 11:00N 45°52' W 084°43'  
2017-Sep-26 18:26N 45°52' W 084°43'2 0.7
2017-Sep-26 15:16N 45°52' W 084°41'310.8
2017-Sep-26 15:00N 45°50' W 084°37'0 0.2
2017-Sep-26 14:30N 45°51' W 084°37'4 4.6
2017-Sep-26 13:32N 45°52' W 084°43'110.6
2017-Sep-26 13:26N 45°52' W 084°42'3 7.6
2017-Sep-26 12:59N 45°51' W 084°37'0 0.0
2017-Sep-26 12:30N 45°51' W 084°37'0 0.6
2017-Sep-26 11:59N 45°51' W 084°37'5 0.3
2017-Sep-25 17:41N 45°52' W 084°43'2 9.6
2017-Sep-25 17:30N 45°52' W 084°41'3 5.6
2017-Sep-25 17:00N 45°51' W 084°37'0 0.3
2017-Sep-25 16:31N 45°51' W 084°37'4 8.0
2017-Sep-25 16:00N 45°52' W 084°43'0 1.0
2017-Sep-25 15:30N 45°52' W 084°43'1 0.4
2017-Sep-25 13:25N 45°52' W 084°42'4 9.2
2017-Sep-25 13:00N 45°51' W 084°37'0 0.1
2017-Sep-25 12:30N 45°51' W 084°37'0 0.3
2017-Sep-25 12:00N 45°51' W 084°37'  
Track history (hours):
 
Tides and Currents Weather Stations Pressure Air Temp Water Temp Dewpoint Dewpoint Depression Visibility Wind Speed Wind Dir Waves Ship Positions

Huron

Owner: MIFC SHIPPING LLC, Mackinac Island, MI. More information available from US FCC via Universal Licensing System and Coast Guard Vessel Documentation Center.

Last reported at 2017-Oct-03 19:37 UTC. Time now 2017-Oct-20 18:28 UTC.
Position N 45°52' W 084°43'.
Warning: this ship's position is 16 days out of date.

Length 29 m; draft 2.4 m.

Type: Passenger vessel. MMSI: 367706310.

Date/timePositionNaut miles runAvg speedWind from/ knotsBaromVisibWave heightAir tempDewpointWater temp
2017-Oct-03 19:37N 45°52' W 084°43'0 0.4
2017-Oct-03 19:30N 45°52' W 084°43'0 0.2
2017-Oct-03 17:35N 45°52' W 084°43'0 6.3
2017-Oct-03 17:31N 45°52' W 084°43'4 8.4
2017-Oct-03 17:00N 45°51' W 084°37'2 4.5
2017-Oct-03 16:30N 45°51' W 084°40'2 4.9
2017-Oct-03 16:00N 45°52' W 084°43'0 0.0
2017-Oct-03 15:30N 45°52' W 084°43'3 5.7
2017-Oct-03 15:00N 45°51' W 084°39'3 2.8
2017-Oct-03 14:00N 45°52' W 084°43'0 0.1
2017-Oct-03 13:30N 45°52' W 084°43'1 1.5
2017-Oct-03 12:54N 45°52' W 084°42'4 9.6
2017-Oct-03 12:30N 45°51' W 084°37'0 0.2
2017-Oct-03 12:00N 45°51' W 084°37'3 0.2
2017-Oct-02 18:11N 45°52' W 084°42'210.7
2017-Oct-02 18:00N 45°51' W 084°39'1 0.7
2017-Oct-02 16:13N 45°52' W 084°41'2 0.6
2017-Oct-02 13:00N 45°52' W 084°43'0 0.2
2017-Oct-02 12:30N 45°52' W 084°43'0 0.0
2017-Oct-02 11:45N 45°52' W 084°43'0 0.0
2017-Oct-02 11:30N 45°52' W 084°43'0 0.0
2017-Oct-02 11:00N 45°52' W 084°43'  
2017-Sep-26 18:26N 45°52' W 084°43'2 0.7
2017-Sep-26 15:16N 45°52' W 084°41'310.8
2017-Sep-26 15:00N 45°50' W 084°37'0 0.2
2017-Sep-26 14:30N 45°51' W 084°37'4 4.6
2017-Sep-26 13:32N 45°52' W 084°43'110.6
2017-Sep-26 13:26N 45°52' W 084°42'3 7.6
2017-Sep-26 12:59N 45°51' W 084°37'0 0.0
2017-Sep-26 12:30N 45°51' W 084°37'0 0.6
2017-Sep-26 11:59N 45°51' W 084°37'5 0.3
2017-Sep-25 17:41N 45°52' W 084°43'2 9.6
2017-Sep-25 17:30N 45°52' W 084°41'3 5.6
2017-Sep-25 17:00N 45°51' W 084°37'0 0.3
2017-Sep-25 16:31N 45°51' W 084°37'4 8.0
2017-Sep-25 16:00N 45°52' W 084°43'0 1.0
2017-Sep-25 15:30N 45°52' W 084°43'1 0.4
2017-Sep-25 13:25N 45°52' W 084°42'4 9.2
2017-Sep-25 13:00N 45°51' W 084°37'0 0.1
2017-Sep-25 12:30N 45°51' W 084°37'0 0.3
2017-Sep-25 12:00N 45°51' W 084°37'  

Dump ship's entire track history